Latest Weather Observations for Ceduna

IDS60801

Issued at 4:02 pm CST Thursday 28 July 2016 (issued every 30 minutes, with the page automatically refreshed every 10 minutes)

About weather observations | Map of weather stations | Latest weather observations for SA | Other Formats
Station Details ID: 018012 Name: CEDUNA AMO Lat: -32.13 Lon: 133.70 Height: 15.3 m
Data from the previous 72 hours. | See also: Recent months at Ceduna
Date/Time
CST
Temp
°C
App
Temp
°C
Dew
Point
°C
Rel
Hum
%
Delta-T
°C
Wind Press
QNH
hPa
Press
MSL
hPa
Rain since
9am
mm
Dir  Spd
km/h
Gust
km/h
Spd
kts
Gust
kts
28/04:00pm 16.2 14.3 10.5 69 3.0 SSW 11 17 6 9 1026.5 1026.5 0.0
28/03:30pm 16.0 13.0 9.4 65 3.4 SW 15 19 8 10 1026.8 1026.8 0.0
28/03:00pm 17.8 15.8 8.6 55 4.7 NW 9 20 5 11 1026.7 1026.7 0.0
28/02:30pm 17.3 15.1 9.2 59 4.2 NW 11 17 6 9 1026.9 1026.9 0.0
28/02:00pm 17.4 15.1 9.1 58 4.3 WNW 11 17 6 9 1027.1 1027.1 0.0
28/01:30pm 16.5 14.7 9.4 63 3.7 WNW 9 13 5 7 1027.7 1027.7 0.0
28/01:00pm 16.4 14.3 9.6 64 3.5 NNW 11 17 6 9 1028.3 1028.3 0.0
28/12:30pm 15.7 13.0 9.1 65 3.4 NNW 13 22 7 12 1028.9 1028.9 0.0
28/12:00pm 15.0 12.5 9.6 70 2.8 N 13 17 7 9 1029.6 1029.6 0.0
28/11:30am 14.0 11.5 8.4 69 2.8 N 11 17 6 9 1030.3 1030.3 0.0
28/11:00am 14.0 11.6 8.8 71 2.6 NNE 11 17 6 9 1030.6 1030.6 0.0
28/10:30am 13.2 11.3 8.9 75 2.1 N 9 13 5 7 1031.1 1031.1 0.0
28/10:00am 11.3 9.7 8.7 84 1.3 N 7 9 4 5 1031.2 1031.2 0.0
28/09:30am 9.0 7.1 7.6 91 0.7 NNE 7 9 4 5 1031.1 1031.1 0.0
28/09:00am 6.8 4.7 5.7 93 0.5 NNE 6 7 3 4 1031.1 1031.1 0.0
28/08:30am 4.6 2.6 4.2 97 0.2 NNE 4 6 2 3 1030.7 1030.7 0.0
28/08:00am 2.2 -0.6 1.9 98 0.1 NE 6 7 3 4 1030.5 1030.5 0.0
28/07:30am 1.7 -1.4 1.4 98 0.1 NE 7 9 4 5 1030.1 1030.1 0.0
28/07:00am 1.0 -2.3 0.4 96 0.2 NE 7 9 4 5 1029.6 1029.6 0.0
28/06:30am 0.8 -1.1 0.4 97 0.1 CALM 0 9 0 5 1029.5 1029.5 0.0
28/06:00am 1.4 -0.4 1.0 97 0.1 CALM 0 0 0 0 1029.7 1029.7 0.0
28/05:30am 1.4 -0.5 0.8 96 0.2 CALM 0 0 0 0 1029.5 1029.5 0.0
28/05:00am 2.2 -0.7 1.6 96 0.2 NNE 6 6 3 3 1029.1 1029.1 0.0
28/04:30am 3.2 0.3 2.8 97 0.2 NNE 7 17 4 9 1028.8 1028.8 0.0
28/04:00am 3.1 0.2 2.8 98 0.1 NE 7 9 4 5 1028.8 1028.8 0.0
28/03:30am 2.1 -0.9 1.7 97 0.2 NNE 7 9 4 5 1028.8 1028.8 0.0
28/03:00am 2.7 -0.3 2.1 96 0.2 NNE 7 9 4 5 1029.2 1029.2 0.0
28/02:30am 2.4 -0.6 1.7 95 0.3 NNE 7 7 4 4 1029.1 1029.1 0.0
28/02:00am 3.8 0.6 2.9 94 0.4 NNE 9 11 5 6 1029.2 1029.2 0.0
28/01:30am 4.2 1.4 3.3 94 0.4 N 7 11 4 6 1029.5 1029.5 0.0
28/01:00am 5.1 2.2 4.4 95 0.3 NNE 9 11 5 6 1029.7 1029.7 0.0
28/12:30am 4.7 1.6 3.8 94 0.4 N 9 9 5 5 1029.8 1029.8 0.0
28/12:00am 4.6 2.4 3.6 93 0.4 NNE 4 7 2 4 1029.8 1029.8 0.0
 
Date/Time
CST
Temp
°C
App
Temp
°C
Dew
Point
°C
Rel
Hum
%
Delta-T
°C
Wind Press
QNH
hPa
Press
MSL
hPa
Rain since
9am
mm
Dir  Spd
km/h
Gust
km/h
Spd
kts
Gust
kts
27/11:30pm 4.8 3.3 2.8 87 0.8 CALM 0 0 0 0 1029.5 1029.5 0.0
27/11:00pm 8.1 7.2 6.1 87 0.9 CALM 0 0 0 0 1029.7 1029.7 0.0
27/10:30pm 7.9 5.5 5.4 84 1.1 SSW 7 11 4 6 1029.5 1029.5 0.0
27/10:00pm 9.1 8.2 6.0 81 1.4 CALM 0 0 0 0 1029.6 1029.6 0.0
27/09:30pm 10.3 8.8 6.6 78 1.7 S 4 6 2 3 1029.4 1029.4 0.0
27/09:00pm 11.0 10.3 6.9 76 1.9 CALM 0 0 0 0 1029.3 1029.3 0.0
27/08:30pm 11.6 9.8 7.1 74 2.1 SSW 6 7 3 4 1029.3 1029.3 0.0
27/08:00pm 12.9 10.4 6.7 66 3.0 S 9 13 5 7 1029.1 1029.1 0.0
27/07:30pm 12.2 9.9 7.3 72 2.3 SW 9 17 5 9 1029.2 1029.2 0.0
27/07:00pm 12.6 10.4 7.9 73 2.3 SW 9 15 5 8 1029.2 1029.2 0.0
27/06:30pm 12.6 10.5 8.1 74 2.2 SW 9 13 5 7 1029.3 1029.3 0.0
27/06:00pm 12.9 11.4 8.4 74 2.2 SW 6 7 3 4 1029.0 1029.0 0.0
27/05:30pm 13.2 10.9 7.6 69 2.7 W 9 13 5 7 1028.8 1028.8 0.0
27/05:00pm 13.4 11.0 8.7 73 2.4 WSW 11 15 6 8 1028.8 1028.8 0.0
27/04:30pm 13.6 9.7 8.7 72 2.4 WSW 19 24 10 13 1028.8 1028.8 0.0
27/04:00pm 13.9 10.7 8.3 69 2.8 W 15 20 8 11 1028.5 1028.5 0.0
27/03:30pm 14.1 10.7 7.6 65 3.2 SW 15 19 8 10 1028.4 1028.4 0.0
27/03:00pm 14.2 10.9 8.2 67 3.0 WSW 15 20 8 11 1028.1 1028.1 0.0
27/02:30pm 14.1 11.1 7.9 66 3.1 W 13 19 7 10 1028.1 1028.1 0.0
27/02:00pm 14.2 10.3 7.0 62 3.5 W 17 22 9 12 1028.0 1028.0 0.0
27/01:30pm 14.5 10.4 8.7 68 2.9 WSW 20 26 11 14 1027.8 1027.8 0.0
27/01:00pm 14.6 10.8 9.0 69 2.9 WSW 19 22 10 12 1027.8 1027.8 0.0
27/12:30pm 14.7 11.2 8.6 67 3.1 SW 17 22 9 12 1028.2 1028.2 0.0
27/12:00pm 14.7 10.9 7.7 63 3.4 SW 17 24 9 13 1028.5 1028.5 0.0
27/11:30am 14.7 11.2 7.3 61 3.6 SW 15 19 8 10 1028.2 1028.2 0.0
27/11:00am 14.5 11.1 7.5 63 3.5 SSW 15 19 8 10 1028.2 1028.2 0.0
27/10:30am 14.2 11.1 7.3 63 3.4 SW 13 17 7 9 1028.2 1028.2 0.0
27/10:00am 13.5 10.2 8.1 70 2.7 WSW 15 20 8 11 1028.2 1028.2 0.0
27/09:30am 13.2 10.0 8.5 73 2.3 SW 15 20 8 11 1027.7 1027.7 0.0
27/09:00am 13.0 10.0 7.9 71 2.5 SW 13 17 7 9 1027.3 1027.3 1.0
27/08:30am 12.6 8.1 7.1 69 2.6 SW 20 28 11 15 1026.7 1026.7 1.0
27/08:00am 12.4 7.9 7.1 70 2.6 SW 20 26 11 14 1026.1 1026.1 1.0
27/07:30am 12.0 8.7 7.9 76 2.0 SW 15 20 8 11 1025.7 1025.7 1.0
27/07:00am 12.1 9.4 7.4 73 2.3 S 11 15 6 8 1025.3 1025.3 1.0
27/06:30am 12.5 8.6 7.2 70 2.5 SSW 17 20 9 11 1024.9 1024.9 1.0
27/06:00am 12.6 8.2 7.3 70 2.6 S 20 26 11 14 1024.4 1024.4 1.0
27/05:30am 12.7 8.7 8.2 74 2.2 SSW 19 22 10 12 1024.0 1024.0 1.0
27/05:00am 12.8 8.9 8.7 76 2.0 SW 19 24 10 13 1023.7 1023.7 1.0
27/04:30am 12.9 8.4 8.4 74 2.2 SW 22 30 12 16 1023.5 1023.5 1.0
27/04:00am 12.8 8.6 8.3 74 2.2 SW 20 30 11 16 1023.2 1023.2 1.0
27/03:30am 12.6 7.0 7.3 70 2.6 SW 26 33 14 18 1023.3 1023.3 1.0
27/03:00am 13.0 7.7 8.3 73 2.3 SW 26 35 14 19 1023.0 1023.0 1.0
27/02:30am 13.2 7.1 8.3 72 2.4 SW 30 43 16 23 1022.8 1022.8 1.0
27/02:00am 13.1 7.8 8.6 74 2.2 SW 26 35 14 19 1022.7 1022.7 1.0
27/01:30am 13.2 7.4 8.1 71 2.5 SW 28 35 15 19 1022.5 1022.5 1.0
27/01:00am 13.2 6.9 9.1 76 2.1 SW 32 41 17 22 1022.6 1022.6 1.0
27/12:30am 13.1 7.4 9.9 81 1.6 SW 30 43 16 23 1022.5 1022.5 1.0
27/12:00am 13.0 7.4 10.2 83 1.4 SW 30 41 16 22 1022.3 1022.3 1.0
 
Date/Time
CST
Temp
°C
App
Temp
°C
Dew
Point
°C
Rel
Hum
%
Delta-T
°C
Wind Press
QNH
hPa
Press
MSL
hPa
Rain since
9am
mm
Dir  Spd
km/h
Gust
km/h
Spd
kts
Gust
kts
26/11:30pm 13.2 7.2 10.2 82 1.5 SW 32 46 17 25 1022.1 1022.1 1.0
26/11:00pm 12.8 7.0 9.4 80 1.7 SW 30 39 16 21 1021.9 1021.9 1.0
26/10:30pm 13.2 7.0 9.5 78 1.9 SW 32 41 17 22 1021.7 1021.7 1.0
26/10:00pm 12.8 5.6 10.7 87 1.1 SW 39 57 21 31 1021.5 1021.5 1.0
26/09:51pm 13.3 6.9 10.7 84 1.4 WSW 35 57 19 31 1021.1 1021.1 1.0
26/09:30pm 12.9 9.2 11.6 92 0.7 WSW 22 32 12 17 1020.9 1020.9 0.8
26/09:23pm 12.8 8.3 11.4 91 0.7 W 26 35 14 19 1020.8 1020.8 0.8
26/09:06pm 12.4 6.7 11.3 93 0.6 WSW 32 44 17 24 1020.8 1020.8 0.8
26/09:00pm 13.5 9.5 11.9 90 0.9 W 24 41 13 22 1020.6 1020.6 0.2
26/08:30pm 12.8 9.2 11.9 94 0.5 WNW 22 33 12 18 1020.2 1020.2 0.2
26/08:00pm 12.4 8.0 11.6 95 0.4 WNW 26 33 14 18 1020.0 1020.0 0.0
26/07:30pm 12.8 7.9 11.2 90 0.8 WNW 28 37 15 20 1019.7 1019.7 0.0
26/07:00pm 12.8 7.8 11.0 89 0.9 WNW 28 37 15 20 1019.2 1019.2 0.0
26/06:30pm 12.6 7.6 11.0 90 0.8 WNW 28 37 15 20 1018.9 1018.9 0.0
26/06:13pm 12.5 7.2 11.1 91 0.7 WNW 30 46 16 25 1019.0 1019.0 0.0
26/06:00pm 12.4 6.7 11.1 92 0.7 WNW 32 44 17 24 1018.9 1018.9 0.0
26/05:56pm 12.5 6.6 11.1 91 0.7 WNW 33 46 18 25 1018.8 1018.8 0.0
26/05:30pm 13.0 6.5 10.5 85 1.3 WNW 35 50 19 27 1019.0 1019.0 0.0
26/05:00pm 13.6 6.2 10.0 79 1.9 W 39 61 21 33 1018.9 1018.9 0.0
26/04:46pm 14.4 7.2 9.2 71 2.7 WNW 37 56 20 30 1018.4 1018.4 0.0
26/04:30pm 14.5 7.7 9.1 70 2.7 WNW 35 46 19 25 1018.3 1018.3 0.0
26/04:00pm 14.8 7.6 9.0 68 3.0 WNW 37 59 20 32 1018.2 1018.2 0.0
26/03:59pm 14.8 7.5 8.7 67 3.1 WNW 37 59 20 32 1018.1 1018.1 0.0
26/03:30pm 14.9 8.6 9.7 71 2.7 WNW 33 46 18 25 1018.1 1018.1 0.0
26/03:10pm 15.0 7.8 9.1 68 3.0 WNW 37 56 20 30 1018.2 1018.2 0.0
26/03:00pm 15.4 7.9 9.3 67 3.1 WNW 39 52 21 28 1018.1 1018.1 0.0
26/02:30pm 14.6 7.5 9.6 72 2.6 WNW 37 57 20 31 1018.2 1018.2 0.0
26/02:27pm 14.6 7.8 9.4 71 2.7 WNW 35 57 19 31 1018.1 1018.1 0.0
26/02:00pm 15.2 9.3 10.4 73 2.5 WNW 32 41 17 22 1018.3 1018.3 0.0
26/01:32pm 14.4 8.0 10.8 79 1.9 WNW 35 54 19 29 1018.7 1018.7 0.0
26/01:30pm 14.8 8.5 11.2 79 1.9 WNW 35 48 19 26 1018.7 1018.7 0.0
26/01:00pm 13.8 8.2 10.2 79 1.9 W 30 39 16 21 1019.0 1019.0 0.0
26/12:30pm 14.7 10.2 11.3 80 1.8 WNW 26 37 14 20 1019.0 1019.0 0.0
26/12:00pm 15.0 9.8 11.6 80 1.8 WNW 30 39 16 21 1019.4 1019.4 0.0
26/11:30am 14.3 9.1 11.5 83 1.5 NW 30 43 16 23 1019.9 1019.9 0.0
26/11:00am 13.1 8.4 10.5 84 1.4 NW 26 37 14 20 1020.0 1020.0 0.0
26/10:30am 12.4 7.5 10.1 86 1.2 NW 26 37 14 20 1020.3 1020.3 0.0
26/10:00am 12.2 8.6 10.4 89 0.9 NW 20 33 11 18 1020.0 1020.0 0.0
26/09:30am 11.6 7.9 10.2 91 0.7 NW 20 30 11 16 1020.0 1020.0 0.0
26/09:00am 10.9 7.2 10.3 96 0.3 NW 20 26 11 14 1020.2 1020.2 2.2
26/08:30am 10.2 6.6 9.9 98 0.2 NW 19 28 10 15 1020.0 1020.0 2.2
26/08:00am 9.0 6.3 8.9 99 0.0 NNW 13 17 7 9 1019.9 1019.9 2.2
26/07:30am 8.6 5.8 8.5 99 0.0 NNW 13 17 7 9 1019.3 1019.3 2.2
26/07:00am 9.4 6.8 9.3 99 0.0 NNW 13 17 7 9 1019.5 1019.5 2.2
26/06:30am 9.5 6.9 9.4 99 0.0 NW 13 15 7 8 1019.8 1019.8 2.2
26/06:00am 9.9 7.8 9.8 99 0.1 NW 11 17 6 9 1019.7 1019.7 2.2
26/05:30am 10.4 8.8 10.2 99 0.1 WNW 9 13 5 7 1019.7 1019.7 2.2
26/05:00am 10.4 8.0 10.2 99 0.1 NW 13 15 7 8 1019.6 1019.6 2.2
26/04:30am 10.3 8.3 10.1 99 0.1 NW 11 15 6 8 1019.7 1019.7 2.0
26/04:00am 9.8 7.7 9.7 99 0.1 NNW 11 13 6 7 1019.8 1019.8 1.8
26/03:30am 10.0 8.3 9.9 99 0.1 NW 9 13 5 7 1020.0 1020.0 1.8
26/03:00am 9.6 7.8 9.5 99 0.0 NW 9 11 5 6 1020.3 1020.3 1.8
26/02:30am 9.8 7.3 9.7 99 0.0 NW 13 15 7 8 1020.6 1020.6 1.8
26/02:00am 10.5 8.5 10.2 98 0.2 WNW 11 15 6 8 1020.7 1020.7 1.8
26/01:30am 10.9 8.6 10.6 98 0.2 WNW 13 17 7 9 1021.0 1021.0 1.8
26/01:00am 10.4 8.4 10.1 98 0.2 WNW 11 15 6 8 1021.1 1021.1 1.8
26/12:50am 10.4 8.4 10.1 98 0.2 WNW 11 13 6 7 1021.1 1021.1 1.8
26/12:30am 10.9 9.0 10.6 98 0.2 WNW 11 17 6 9 1021.1 1021.1 1.6
26/12:00am 11.2 9.0 10.9 98 0.2 WNW 13 19 7 10 1021.4 1021.4 1.6
 
Date/Time
CST
Temp
°C
App
Temp
°C
Dew
Point
°C
Rel
Hum
%
Delta-T
°C
Wind Press
QNH
hPa
Press
MSL
hPa
Rain since
9am
mm
Dir  Spd
km/h
Gust
km/h
Spd
kts
Gust
kts
25/11:30pm 11.2 8.7 10.9 98 0.2 NW 15 19 8 10 1021.5 1021.5 1.4
25/11:05pm 11.3 8.4 11.0 98 0.2 WNW 17 20 9 11 1021.4 1021.4 1.2
25/11:02pm 11.2 8.3 10.9 98 0.2 NW 17 20 9 11 1021.3 1021.3 1.2
25/11:00pm 11.2 8.3 10.9 98 0.2 NW 17 20 9 11 1021.3 1021.3 1.2
25/10:38pm 11.2 7.7 10.9 98 0.2 NW 20 28 11 15 1021.3 1021.3 0.8
25/10:34pm 11.2 7.7 10.9 98 0.2 NW 20 28 11 15 1021.3 1021.3 0.8
25/10:30pm 11.2 7.6 10.7 97 0.3 NW 20 28 11 15 1021.4 1021.4 0.8
25/10:18pm 11.3 7.8 10.8 97 0.3 NW 20 24 11 13 1021.4 1021.4 0.8
25/10:04pm 11.1 8.5 10.6 97 0.3 NW 15 22 8 12 1021.4 1021.4 0.8
25/10:00pm 11.1 8.5 10.6 97 0.3 NW 15 22 8 12 1021.4 1021.4 0.8
25/09:30pm 11.0 7.4 10.5 97 0.3 NW 20 28 11 15 1021.4 1021.4 0.8
25/09:00pm 11.2 6.9 10.7 97 0.3 NW 24 33 13 18 1021.4 1021.4 0.8
25/08:56pm 11.2 6.9 10.7 97 0.3 NW 24 33 13 18 1021.3 1021.3 0.8
25/08:33pm 11.5 7.6 10.7 95 0.4 WNW 22 32 12 17 1021.6 1021.6 0.4
25/08:30pm 11.6 7.7 10.7 94 0.5 WNW 22 32 12 17 1021.5 1021.5 0.2
25/08:00pm 11.5 7.9 10.6 94 0.5 NW 20 28 11 15 1021.2 1021.2 0.0
25/07:30pm 11.8 7.5 10.9 94 0.5 WNW 24 32 13 17 1021.1 1021.1 0.0
25/07:00pm 12.1 7.5 11.2 94 0.5 WNW 26 39 14 21 1020.9 1020.9 0.0
25/06:30pm 12.0 7.7 10.7 92 0.7 WNW 24 35 13 19 1020.8 1020.8 0.0
25/06:00pm 12.6 7.9 10.7 88 1.0 WSW 26 44 14 24 1020.6 1020.6 0.0
25/05:30pm 14.0 9.0 9.6 75 2.3 WNW 26 39 14 21 1020.2 1020.2 0.0
25/05:00pm 14.2 9.2 9.6 74 2.4 WNW 26 35 14 19 1020.2 1020.2 0.0
25/04:30pm 14.5 8.3 9.5 72 2.6 WNW 32 39 17 21 1020.0 1020.0 0.0

Other Formats:

Comma delimited format used in spreadsheet applications
http://www.bom.gov.au/fwo/IDS60801/IDS60801.94653.axf

JavaScript Object Notation format (JSON) in row-major order
http://www.bom.gov.au/fwo/IDS60801/IDS60801.94653.json